sensor_id;sensor_type;location;lat;lon;timestamp;P1;durP1;ratioP1;P2;durP2;ratioP2
74196;SDS011;62555;52.678;4.900;2023-03-05T00:01:55;1.35;;;0.77;;
74196;SDS011;62555;52.678;4.900;2023-03-05T00:04:20;1.75;;;0.70;;
74196;SDS011;62555;52.678;4.900;2023-03-05T00:06:47;1.95;;;0.93;;
74196;SDS011;62555;52.678;4.900;2023-03-05T00:09:12;1.90;;;1.08;;
74196;SDS011;62555;52.678;4.900;2023-03-05T00:11:38;1.88;;;1.00;;
74196;SDS011;62555;52.678;4.900;2023-03-05T00:14:04;1.42;;;1.20;;
74196;SDS011;62555;52.678;4.900;2023-03-05T00:16:30;2.25;;;1.02;;
74196;SDS011;62555;52.678;4.900;2023-03-05T00:18:56;1.98;;;0.90;;
74196;SDS011;62555;52.678;4.900;2023-03-05T00:21:24;2.30;;;1.13;;
74196;SDS011;62555;52.678;4.900;2023-03-05T00:23:54;2.47;;;0.80;;
74196;SDS011;62555;52.678;4.900;2023-03-05T00:26:22;2.95;;;0.90;;
74196;SDS011;62555;52.678;4.900;2023-03-05T00:28:49;2.47;;;0.90;;
74196;SDS011;62555;52.678;4.900;2023-03-05T00:31:19;1.27;;;0.80;;
74196;SDS011;62555;52.678;4.900;2023-03-05T00:33:51;3.10;;;1.88;;
74196;SDS011;62555;52.678;4.900;2023-03-05T00:36:17;1.95;;;0.82;;
74196;SDS011;62555;52.678;4.900;2023-03-05T00:38:42;2.53;;;1.05;;
74196;SDS011;62555;52.678;4.900;2023-03-05T00:41:08;1.27;;;0.70;;
74196;SDS011;62555;52.678;4.900;2023-03-05T00:43:33;1.52;;;1.10;;
74196;SDS011;62555;52.678;4.900;2023-03-05T00:45:58;1.75;;;0.90;;
74196;SDS011;62555;52.678;4.900;2023-03-05T00:48:24;1.88;;;1.10;;
74196;SDS011;62555;52.678;4.900;2023-03-05T00:50:49;1.80;;;0.77;;
74196;SDS011;62555;52.678;4.900;2023-03-05T00:53:15;0.93;;;0.55;;
74196;SDS011;62555;52.678;4.900;2023-03-05T00:55:40;1.02;;;0.70;;
74196;SDS011;62555;52.678;4.900;2023-03-05T00:58:05;2.22;;;0.70;;
74196;SDS011;62555;52.678;4.900;2023-03-05T01:00:31;1.35;;;0.88;;
74196;SDS011;62555;52.678;4.900;2023-03-05T01:02:56;1.63;;;0.77;;
74196;SDS011;62555;52.678;4.900;2023-03-05T01:05:22;1.65;;;0.90;;
74196;SDS011;62555;52.678;4.900;2023-03-05T01:07:47;1.30;;;0.82;;
74196;SDS011;62555;52.678;4.900;2023-03-05T01:10:12;1.83;;;0.77;;
74196;SDS011;62555;52.678;4.900;2023-03-05T01:12:38;1.23;;;1.13;;
74196;SDS011;62555;52.678;4.900;2023-03-05T01:15:03;1.15;;;0.70;;
74196;SDS011;62555;52.678;4.900;2023-03-05T01:17:29;2.70;;;1.25;;
74196;SDS011;62555;52.678;4.900;2023-03-05T01:19:55;1.30;;;0.68;;
74196;SDS011;62555;52.678;4.900;2023-03-05T01:22:20;1.33;;;1.00;;
74196;SDS011;62555;52.678;4.900;2023-03-05T01:24:46;2.08;;;1.00;;
74196;SDS011;62555;52.678;4.900;2023-03-05T01:27:11;1.85;;;0.80;;
74196;SDS011;62555;52.678;4.900;2023-03-05T01:29:36;1.83;;;0.82;;
74196;SDS011;62555;52.678;4.900;2023-03-05T01:32:02;2.55;;;0.60;;
74196;SDS011;62555;52.678;4.900;2023-03-05T01:34:27;1.52;;;0.70;;
74196;SDS011;62555;52.678;4.900;2023-03-05T01:36:52;1.10;;;0.60;;
74196;SDS011;62555;52.678;4.900;2023-03-05T01:39:18;2.83;;;1.08;;
74196;SDS011;62555;52.678;4.900;2023-03-05T01:41:43;2.08;;;0.77;;
74196;SDS011;62555;52.678;4.900;2023-03-05T01:44:17;1.58;;;0.68;;
74196;SDS011;62555;52.678;4.900;2023-03-05T01:46:45;1.35;;;0.70;;
74196;SDS011;62555;52.678;4.900;2023-03-05T01:54:30;0.85;;;0.60;;
74196;SDS011;62555;52.678;4.900;2023-03-05T01:56:58;1.15;;;0.65;;
74196;SDS011;62555;52.678;4.900;2023-03-05T01:59:26;2.35;;;0.55;;
74196;SDS011;62555;52.678;4.900;2023-03-05T02:01:53;1.70;;;0.60;;
74196;SDS011;62555;52.678;4.900;2023-03-05T02:04:20;2.38;;;0.60;;
74196;SDS011;62555;52.678;4.900;2023-03-05T02:06:46;1.65;;;0.70;;
74196;SDS011;62555;52.678;4.900;2023-03-05T02:09:12;1.83;;;0.68;;
74196;SDS011;62555;52.678;4.900;2023-03-05T02:11:38;2.20;;;1.13;;
74196;SDS011;62555;52.678;4.900;2023-03-05T02:14:04;1.48;;;0.93;;
74196;SDS011;62555;52.678;4.900;2023-03-05T02:16:29;1.80;;;0.98;;
74196;SDS011;62555;52.678;4.900;2023-03-05T02:19:01;2.00;;;0.90;;
74196;SDS011;62555;52.678;4.900;2023-03-05T02:21:35;2.15;;;0.90;;
74196;SDS011;62555;52.678;4.900;2023-03-05T02:24:12;1.42;;;1.10;;
74196;SDS011;62555;52.678;4.900;2023-03-05T02:26:39;3.03;;;1.10;;
74196;SDS011;62555;52.678;4.900;2023-03-05T02:29:07;2.13;;;1.20;;
74196;SDS011;62555;52.678;4.900;2023-03-05T02:31:33;2.10;;;1.35;;
74196;SDS011;62555;52.678;4.900;2023-03-05T02:33:58;1.88;;;1.30;;
74196;SDS011;62555;52.678;4.900;2023-03-05T02:36:24;1.83;;;1.10;;
74196;SDS011;62555;52.678;4.900;2023-03-05T02:38:50;2.40;;;1.40;;
74196;SDS011;62555;52.678;4.900;2023-03-05T02:41:17;1.70;;;1.40;;
74196;SDS011;62555;52.678;4.900;2023-03-05T02:43:42;1.85;;;1.67;;
74196;SDS011;62555;52.678;4.900;2023-03-05T02:46:08;1.48;;;1.35;;
74196;SDS011;62555;52.678;4.900;2023-03-05T02:48:33;2.35;;;1.60;;
74196;SDS011;62555;52.678;4.900;2023-03-05T02:50:59;3.45;;;1.85;;
74196;SDS011;62555;52.678;4.900;2023-03-05T02:53:26;2.92;;;1.90;;
74196;SDS011;62555;52.678;4.900;2023-03-05T02:55:51;3.92;;;2.45;;
74196;SDS011;62555;52.678;4.900;2023-03-05T02:58:17;3.47;;;2.28;;
74196;SDS011;62555;52.678;4.900;2023-03-05T03:00:42;3.17;;;2.58;;
74196;SDS011;62555;52.678;4.900;2023-03-05T03:03:08;3.80;;;2.42;;
74196;SDS011;62555;52.678;4.900;2023-03-05T03:05:34;5.10;;;2.90;;
74196;SDS011;62555;52.678;4.900;2023-03-05T03:08:00;3.08;;;2.88;;
74196;SDS011;62555;52.678;4.900;2023-03-05T03:10:25;5.97;;;2.95;;
74196;SDS011;62555;52.678;4.900;2023-03-05T03:12:51;5.05;;;3.22;;
74196;SDS011;62555;52.678;4.900;2023-03-05T03:15:16;4.13;;;3.00;;
74196;SDS011;62555;52.678;4.900;2023-03-05T03:17:42;4.10;;;2.70;;
74196;SDS011;62555;52.678;4.900;2023-03-05T03:20:10;5.47;;;3.08;;
74196;SDS011;62555;52.678;4.900;2023-03-05T03:22:38;3.30;;;3.00;;
74196;SDS011;62555;52.678;4.900;2023-03-05T03:25:04;4.32;;;2.97;;
74196;SDS011;62555;52.678;4.900;2023-03-05T03:27:29;4.53;;;2.78;;
74196;SDS011;62555;52.678;4.900;2023-03-05T03:29:55;3.85;;;2.50;;
74196;SDS011;62555;52.678;4.900;2023-03-05T03:32:20;4.55;;;2.88;;
74196;SDS011;62555;52.678;4.900;2023-03-05T03:34:45;3.15;;;2.78;;
74196;SDS011;62555;52.678;4.900;2023-03-05T03:37:12;3.17;;;2.33;;
74196;SDS011;62555;52.678;4.900;2023-03-05T03:39:38;3.00;;;2.65;;
74196;SDS011;62555;52.678;4.900;2023-03-05T03:42:03;4.45;;;2.65;;
74196;SDS011;62555;52.678;4.900;2023-03-05T03:44:29;4.60;;;2.80;;
74196;SDS011;62555;52.678;4.900;2023-03-05T03:46:54;3.38;;;2.55;;
74196;SDS011;62555;52.678;4.900;2023-03-05T03:49:20;3.20;;;2.42;;
74196;SDS011;62555;52.678;4.900;2023-03-05T03:51:47;3.85;;;3.25;;
74196;SDS011;62555;52.678;4.900;2023-03-05T03:54:14;3.80;;;2.70;;
74196;SDS011;62555;52.678;4.900;2023-03-05T03:56:40;5.35;;;2.75;;
74196;SDS011;62555;52.678;4.900;2023-03-05T03:59:06;3.25;;;2.53;;
74196;SDS011;62555;52.678;4.900;2023-03-05T04:01:31;2.97;;;2.10;;
74196;SDS011;62555;52.678;4.900;2023-03-05T04:03:56;3.92;;;2.00;;
74196;SDS011;62555;52.678;4.900;2023-03-05T04:06:22;3.83;;;2.28;;
74196;SDS011;62555;52.678;4.900;2023-03-05T04:08:47;3.30;;;1.90;;
74196;SDS011;62555;52.678;4.900;2023-03-05T04:11:13;4.45;;;2.42;;
74196;SDS011;62555;52.678;4.900;2023-03-05T04:13:39;3.00;;;2.28;;
74196;SDS011;62555;52.678;4.900;2023-03-05T04:16:05;2.38;;;2.08;;
74196;SDS011;62555;52.678;4.900;2023-03-05T04:18:30;2.92;;;1.73;;
74196;SDS011;62555;52.678;4.900;2023-03-05T04:20:56;5.03;;;2.35;;
74196;SDS011;62555;52.678;4.900;2023-03-05T04:23:21;2.42;;;1.90;;
74196;SDS011;62555;52.678;4.900;2023-03-05T04:25:46;3.08;;;1.85;;
74196;SDS011;62555;52.678;4.900;2023-03-05T04:28:12;3.33;;;1.67;;
74196;SDS011;62555;52.678;4.900;2023-03-05T04:30:37;2.20;;;2.00;;
74196;SDS011;62555;52.678;4.900;2023-03-05T04:33:03;3.22;;;1.95;;
74196;SDS011;62555;52.678;4.900;2023-03-05T04:35:28;2.17;;;1.48;;
74196;SDS011;62555;52.678;4.900;2023-03-05T04:37:53;2.80;;;1.85;;
74196;SDS011;62555;52.678;4.900;2023-03-05T04:40:19;2.15;;;1.95;;
74196;SDS011;62555;52.678;4.900;2023-03-05T04:42:44;3.25;;;2.58;;
74196;SDS011;62555;52.678;4.900;2023-03-05T04:45:10;3.67;;;1.70;;
74196;SDS011;62555;52.678;4.900;2023-03-05T04:47:36;3.85;;;1.92;;
74196;SDS011;62555;52.678;4.900;2023-03-05T04:50:02;2.45;;;1.65;;
74196;SDS011;62555;52.678;4.900;2023-03-05T04:52:29;2.90;;;1.92;;
74196;SDS011;62555;52.678;4.900;2023-03-05T04:54:54;1.27;;;1.00;;
74196;SDS011;62555;52.678;4.900;2023-03-05T04:57:19;3.00;;;1.13;;
74196;SDS011;62555;52.678;4.900;2023-03-05T04:59:45;2.38;;;1.50;;
74196;SDS011;62555;52.678;4.900;2023-03-05T05:02:10;2.30;;;1.65;;
74196;SDS011;62555;52.678;4.900;2023-03-05T05:04:35;2.22;;;1.30;;
74196;SDS011;62555;52.678;4.900;2023-03-05T05:07:01;2.60;;;1.27;;
74196;SDS011;62555;52.678;4.900;2023-03-05T05:09:26;2.10;;;1.17;;
74196;SDS011;62555;52.678;4.900;2023-03-05T05:11:52;2.53;;;1.10;;
74196;SDS011;62555;52.678;4.900;2023-03-05T05:14:17;1.30;;;1.13;;
74196;SDS011;62555;52.678;4.900;2023-03-05T05:16:43;1.67;;;0.90;;
74196;SDS011;62555;52.678;4.900;2023-03-05T05:19:08;2.38;;;1.02;;
74196;SDS011;62555;52.678;4.900;2023-03-05T05:21:34;1.08;;;0.98;;
74196;SDS011;62555;52.678;4.900;2023-03-05T05:23:59;1.27;;;0.80;;
74196;SDS011;62555;52.678;4.900;2023-03-05T05:26:25;1.67;;;1.15;;
74196;SDS011;62555;52.678;4.900;2023-03-05T05:28:50;2.03;;;1.20;;
74196;SDS011;62555;52.678;4.900;2023-03-05T05:31:16;1.05;;;0.70;;
74196;SDS011;62555;52.678;4.900;2023-03-05T05:33:42;1.63;;;1.27;;
74196;SDS011;62555;52.678;4.900;2023-03-05T05:36:09;2.55;;;1.08;;
74196;SDS011;62555;52.678;4.900;2023-03-05T05:38:36;1.30;;;0.98;;
74196;SDS011;62555;52.678;4.900;2023-03-05T05:41:03;1.58;;;0.80;;
74196;SDS011;62555;52.678;4.900;2023-03-05T05:43:33;1.60;;;1.20;;
74196;SDS011;62555;52.678;4.900;2023-03-05T05:45:59;1.83;;;1.00;;
74196;SDS011;62555;52.678;4.900;2023-03-05T05:48:26;1.02;;;0.80;;
74196;SDS011;62555;52.678;4.900;2023-03-05T05:50:52;1.48;;;1.02;;
74196;SDS011;62555;52.678;4.900;2023-03-05T05:53:18;0.90;;;0.70;;
74196;SDS011;62555;52.678;4.900;2023-03-05T05:55:43;1.05;;;0.95;;
74196;SDS011;62555;52.678;4.900;2023-03-05T05:58:08;1.30;;;0.80;;
74196;SDS011;62555;52.678;4.900;2023-03-05T06:00:34;1.77;;;0.98;;
74196;SDS011;62555;52.678;4.900;2023-03-05T06:02:59;1.05;;;0.75;;
74196;SDS011;62555;52.678;4.900;2023-03-05T06:05:24;2.47;;;0.93;;
74196;SDS011;62555;52.678;4.900;2023-03-05T06:07:50;1.25;;;0.60;;
74196;SDS011;62555;52.678;4.900;2023-03-05T06:10:15;1.75;;;0.90;;
74196;SDS011;62555;52.678;4.900;2023-03-05T06:12:41;0.90;;;0.70;;
74196;SDS011;62555;52.678;4.900;2023-03-05T06:15:06;1.15;;;0.55;;
74196;SDS011;62555;52.678;4.900;2023-03-05T06:17:32;1.02;;;0.93;;
74196;SDS011;62555;52.678;4.900;2023-03-05T06:19:57;0.95;;;0.70;;
74196;SDS011;62555;52.678;4.900;2023-03-05T06:22:23;1.23;;;0.60;;
74196;SDS011;62555;52.678;4.900;2023-03-05T06:24:49;2.17;;;0.70;;
74196;SDS011;62555;52.678;4.900;2023-03-05T06:27:14;1.13;;;0.60;;
74196;SDS011;62555;52.678;4.900;2023-03-05T06:29:39;1.63;;;0.70;;
74196;SDS011;62555;52.678;4.900;2023-03-05T06:32:05;0.95;;;0.63;;
74196;SDS011;62555;52.678;4.900;2023-03-05T06:34:30;0.90;;;0.70;;
74196;SDS011;62555;52.678;4.900;2023-03-05T06:36:56;0.90;;;0.30;;
74196;SDS011;62555;52.678;4.900;2023-03-05T06:39:21;1.30;;;0.60;;
74196;SDS011;62555;52.678;4.900;2023-03-05T06:41:49;1.10;;;0.70;;
74196;SDS011;62555;52.678;4.900;2023-03-05T06:44:15;0.80;;;0.50;;
74196;SDS011;62555;52.678;4.900;2023-03-05T06:46:41;1.45;;;0.77;;
74196;SDS011;62555;52.678;4.900;2023-03-05T06:49:06;1.75;;;0.68;;
74196;SDS011;62555;52.678;4.900;2023-03-05T06:51:34;0.88;;;0.40;;
74196;SDS011;62555;52.678;4.900;2023-03-05T06:54:04;0.80;;;0.65;;
74196;SDS011;62555;52.678;4.900;2023-03-05T06:56:30;2.72;;;0.95;;
74196;SDS011;62555;52.678;4.900;2023-03-05T06:58:56;2.05;;;0.50;;
74196;SDS011;62555;52.678;4.900;2023-03-05T07:01:22;1.02;;;0.75;;
74196;SDS011;62555;52.678;4.900;2023-03-05T07:03:50;0.55;;;0.40;;
74196;SDS011;62555;52.678;4.900;2023-03-05T07:06:17;1.10;;;0.40;;
74196;SDS011;62555;52.678;4.900;2023-03-05T07:08:43;1.38;;;0.50;;
74196;SDS011;62555;52.678;4.900;2023-03-05T07:11:12;0.90;;;0.38;;
74196;SDS011;62555;52.678;4.900;2023-03-05T07:16:08;0.93;;;0.40;;
74196;SDS011;62555;52.678;4.900;2023-03-05T07:18:34;0.38;;;0.38;;
74196;SDS011;62555;52.678;4.900;2023-03-05T07:21:01;0.70;;;0.35;;
74196;SDS011;62555;52.678;4.900;2023-03-05T07:23:30;0.82;;;0.82;;
74196;SDS011;62555;52.678;4.900;2023-03-05T07:25:55;0.88;;;0.50;;
74196;SDS011;62555;52.678;4.900;2023-03-05T07:28:21;1.50;;;0.60;;
74196;SDS011;62555;52.678;4.900;2023-03-05T07:33:46;0.52;;;0.40;;
74196;SDS011;62555;52.678;4.900;2023-03-05T07:36:12;0.45;;;0.30;;
74196;SDS011;62555;52.678;4.900;2023-03-05T07:38:38;0.30;;;0.20;;
74196;SDS011;62555;52.678;4.900;2023-03-05T07:41:05;0.95;;;0.40;;
74196;SDS011;62555;52.678;4.900;2023-03-05T07:43:31;0.65;;;0.32;;
74196;SDS011;62555;52.678;4.900;2023-03-05T07:45:57;0.70;;;0.30;;
74196;SDS011;62555;52.678;4.900;2023-03-05T07:48:22;0.65;;;0.30;;
74196;SDS011;62555;52.678;4.900;2023-03-05T07:50:48;0.20;;;0.20;;
74196;SDS011;62555;52.678;4.900;2023-03-05T07:53:13;0.50;;;0.50;;
74196;SDS011;62555;52.678;4.900;2023-03-05T07:55:42;0.70;;;0.38;;
74196;SDS011;62555;52.678;4.900;2023-03-05T07:58:08;1.17;;;0.40;;
74196;SDS011;62555;52.678;4.900;2023-03-05T08:00:34;0.60;;;0.30;;
74196;SDS011;62555;52.678;4.900;2023-03-05T08:02:59;0.90;;;0.38;;
74196;SDS011;62555;52.678;4.900;2023-03-05T08:05:25;0.40;;;0.20;;
74196;SDS011;62555;52.678;4.900;2023-03-05T08:07:50;1.45;;;0.30;;
74196;SDS011;62555;52.678;4.900;2023-03-05T08:10:16;0.47;;;0.20;;
74196;SDS011;62555;52.678;4.900;2023-03-05T08:12:41;0.77;;;0.30;;
74196;SDS011;62555;52.678;4.900;2023-03-05T08:15:07;0.30;;;0.20;;
74196;SDS011;62555;52.678;4.900;2023-03-05T08:17:32;0.50;;;0.30;;
74196;SDS011;62555;52.678;4.900;2023-03-05T08:19:58;1.08;;;0.45;;
74196;SDS011;62555;52.678;4.900;2023-03-05T08:22:24;1.08;;;0.20;;
74196;SDS011;62555;52.678;4.900;2023-03-05T08:24:49;0.60;;;0.40;;
74196;SDS011;62555;52.678;4.900;2023-03-05T08:27:16;1.05;;;0.20;;
74196;SDS011;62555;52.678;4.900;2023-03-05T08:29:41;1.20;;;0.45;;
74196;SDS011;62555;52.678;4.900;2023-03-05T08:32:07;0.38;;;0.38;;
74196;SDS011;62555;52.678;4.900;2023-03-05T08:34:32;0.65;;;0.40;;
74196;SDS011;62555;52.678;4.900;2023-03-05T08:36:57;0.68;;;0.60;;
74196;SDS011;62555;52.678;4.900;2023-03-05T08:39:23;0.85;;;0.30;;
74196;SDS011;62555;52.678;4.900;2023-03-05T08:41:48;1.20;;;0.40;;
74196;SDS011;62555;52.678;4.900;2023-03-05T08:44:14;1.10;;;0.30;;
74196;SDS011;62555;52.678;4.900;2023-03-05T08:46:39;0.50;;;0.30;;
74196;SDS011;62555;52.678;4.900;2023-03-05T08:49:04;2.13;;;0.43;;
74196;SDS011;62555;52.678;4.900;2023-03-05T08:51:31;1.50;;;0.43;;
74196;SDS011;62555;52.678;4.900;2023-03-05T08:53:58;0.30;;;0.30;;
74196;SDS011;62555;52.678;4.900;2023-03-05T08:56:24;1.17;;;0.40;;
74196;SDS011;62555;52.678;4.900;2023-03-05T09:01:17;1.15;;;0.40;;
74196;SDS011;62555;52.678;4.900;2023-03-05T09:03:42;0.55;;;0.40;;
74196;SDS011;62555;52.678;4.900;2023-03-05T09:06:08;1.65;;;0.50;;
74196;SDS011;62555;52.678;4.900;2023-03-05T09:08:36;1.55;;;0.50;;
74196;SDS011;62555;52.678;4.900;2023-03-05T09:11:02;0.80;;;0.57;;
74196;SDS011;62555;52.678;4.900;2023-03-05T09:15:58;0.70;;;0.33;;
74196;SDS011;62555;52.678;4.900;2023-03-05T09:18:25;1.20;;;0.20;;
74196;SDS011;62555;52.678;4.900;2023-03-05T09:20:51;0.77;;;0.40;;
74196;SDS011;62555;52.678;4.900;2023-03-05T09:23:16;1.10;;;0.60;;
74196;SDS011;62555;52.678;4.900;2023-03-05T09:25:41;0.95;;;0.38;;
74196;SDS011;62555;52.678;4.900;2023-03-05T09:28:07;1.02;;;0.40;;
74196;SDS011;62555;52.678;4.900;2023-03-05T09:30:32;0.88;;;0.22;;
74196;SDS011;62555;52.678;4.900;2023-03-05T09:33:01;0.52;;;0.20;;
74196;SDS011;62555;52.678;4.900;2023-03-05T09:35:27;0.73;;;0.38;;
74196;SDS011;62555;52.678;4.900;2023-03-05T09:37:52;0.65;;;0.20;;
74196;SDS011;62555;52.678;4.900;2023-03-05T09:40:18;0.85;;;0.30;;
74196;SDS011;62555;52.678;4.900;2023-03-05T09:42:52;0.95;;;0.22;;
74196;SDS011;62555;52.678;4.900;2023-03-05T09:45:46;1.15;;;0.45;;
74196;SDS011;62555;52.678;4.900;2023-03-05T09:48:40;0.32;;;0.20;;
74196;SDS011;62555;52.678;4.900;2023-03-05T09:51:15;0.60;;;0.38;;
74196;SDS011;62555;52.678;4.900;2023-03-05T09:53:59;1.40;;;0.30;;
74196;SDS011;62555;52.678;4.900;2023-03-05T09:56:28;0.85;;;0.65;;
74196;SDS011;62555;52.678;4.900;2023-03-05T09:58:58;0.50;;;0.28;;
74196;SDS011;62555;52.678;4.900;2023-03-05T10:01:29;0.63;;;0.50;;
74196;SDS011;62555;52.678;4.900;2023-03-05T10:04:15;0.85;;;0.50;;
74196;SDS011;62555;52.678;4.900;2023-03-05T10:06:49;0.80;;;0.38;;
74196;SDS011;62555;52.678;4.900;2023-03-05T10:09:30;2.28;;;0.40;;
74196;SDS011;62555;52.678;4.900;2023-03-05T10:12:13;1.00;;;0.30;;
74196;SDS011;62555;52.678;4.900;2023-03-05T10:14:45;0.40;;;0.20;;
74196;SDS011;62555;52.678;4.900;2023-03-05T10:17:21;0.50;;;0.40;;
74196;SDS011;62555;52.678;4.900;2023-03-05T10:31:12;0.60;;;0.38;;
74196;SDS011;62555;52.678;4.900;2023-03-05T10:33:47;1.40;;;0.30;;
74196;SDS011;62555;52.678;4.900;2023-03-05T10:39:04;0.38;;;0.20;;
74196;SDS011;62555;52.678;4.900;2023-03-05T10:41:47;0.30;;;0.20;;
74196;SDS011;62555;52.678;4.900;2023-03-05T10:44:20;0.90;;;0.30;;
74196;SDS011;62555;52.678;4.900;2023-03-05T10:46:57;0.82;;;0.35;;
74196;SDS011;62555;52.678;4.900;2023-03-05T10:49:31;0.70;;;0.17;;
74196;SDS011;62555;52.678;4.900;2023-03-05T10:54:40;1.52;;;0.43;;
74196;SDS011;62555;52.678;4.900;2023-03-05T10:57:20;0.77;;;0.77;;
74196;SDS011;62555;52.678;4.900;2023-03-05T10:59:50;0.68;;;0.30;;
74196;SDS011;62555;52.678;4.900;2023-03-05T11:02:18;0.90;;;0.38;;
74196;SDS011;62555;52.678;4.900;2023-03-05T11:04:45;0.85;;;0.45;;
74196;SDS011;62555;52.678;4.900;2023-03-05T11:10:00;0.90;;;0.40;;
74196;SDS011;62555;52.678;4.900;2023-03-05T11:12:34;1.58;;;0.40;;
74196;SDS011;62555;52.678;4.900;2023-03-05T11:23:02;0.75;;;0.40;;
74196;SDS011;62555;52.678;4.900;2023-03-05T11:25:31;1.65;;;0.50;;
74196;SDS011;62555;52.678;4.900;2023-03-05T11:27:58;1.08;;;0.38;;
74196;SDS011;62555;52.678;4.900;2023-03-05T11:30:34;0.93;;;0.40;;
74196;SDS011;62555;52.678;4.900;2023-03-05T11:35:38;0.63;;;0.47;;
74196;SDS011;62555;52.678;4.900;2023-03-05T11:38:10;1.45;;;0.73;;
74196;SDS011;62555;52.678;4.900;2023-03-05T11:40:49;1.67;;;0.60;;
74196;SDS011;62555;52.678;4.900;2023-03-05T11:43:19;2.50;;;0.68;;
74196;SDS011;62555;52.678;4.900;2023-03-05T11:45:49;1.77;;;0.60;;
74196;SDS011;62555;52.678;4.900;2023-03-05T11:48:19;0.90;;;0.30;;
74196;SDS011;62555;52.678;4.900;2023-03-05T11:50:50;1.60;;;0.52;;
74196;SDS011;62555;52.678;4.900;2023-03-05T11:53:25;0.38;;;0.20;;
74196;SDS011;62555;52.678;4.900;2023-03-05T11:55:57;0.77;;;0.50;;
74196;SDS011;62555;52.678;4.900;2023-03-05T12:00:56;1.85;;;0.47;;
74196;SDS011;62555;52.678;4.900;2023-03-05T12:03:26;2.15;;;0.50;;
74196;SDS011;62555;52.678;4.900;2023-03-05T12:06:04;2.45;;;0.70;;
74196;SDS011;62555;52.678;4.900;2023-03-05T12:08:34;1.50;;;0.50;;
74196;SDS011;62555;52.678;4.900;2023-03-05T12:11:23;2.42;;;0.47;;
74196;SDS011;62555;52.678;4.900;2023-03-05T12:13:54;1.35;;;0.40;;
74196;SDS011;62555;52.678;4.900;2023-03-05T12:22:19;1.42;;;0.45;;
74196;SDS011;62555;52.678;4.900;2023-03-05T12:24:46;1.63;;;0.60;;
74196;SDS011;62555;52.678;4.900;2023-03-05T12:27:13;3.58;;;0.50;;
74196;SDS011;62555;52.678;4.900;2023-03-05T12:37:13;1.23;;;0.52;;
74196;SDS011;62555;52.678;4.900;2023-03-05T12:52:53;3.50;;;0.77;;
74196;SDS011;62555;52.678;4.900;2023-03-05T13:01:06;1.17;;;0.52;;
74196;SDS011;62555;52.678;4.900;2023-03-05T13:03:39;1.17;;;0.43;;
74196;SDS011;62555;52.678;4.900;2023-03-05T13:06:19;0.95;;;0.50;;
74196;SDS011;62555;52.678;4.900;2023-03-05T13:08:54;1.48;;;0.65;;
74196;SDS011;62555;52.678;4.900;2023-03-05T13:11:20;1.85;;;0.60;;
74196;SDS011;62555;52.678;4.900;2023-03-05T13:13:46;1.90;;;0.55;;
74196;SDS011;62555;52.678;4.900;2023-03-05T13:16:25;1.77;;;0.68;;
74196;SDS011;62555;52.678;4.900;2023-03-05T13:18:53;2.30;;;0.73;;
74196;SDS011;62555;52.678;4.900;2023-03-05T13:21:22;2.00;;;0.70;;
74196;SDS011;62555;52.678;4.900;2023-03-05T13:23:51;3.05;;;1.05;;
74196;SDS011;62555;52.678;4.900;2023-03-05T13:31:40;1.67;;;0.52;;
74196;SDS011;62555;52.678;4.900;2023-03-05T13:36:54;1.30;;;0.77;;
74196;SDS011;62555;52.678;4.900;2023-03-05T13:39:22;2.05;;;0.60;;
74196;SDS011;62555;52.678;4.900;2023-03-05T13:42:34;2.00;;;0.60;;
74196;SDS011;62555;52.678;4.900;2023-03-05T13:44:39;1.52;;;0.55;;
74196;SDS011;62555;52.678;4.900;2023-03-05T13:47:05;0.90;;;0.50;;
74196;SDS011;62555;52.678;4.900;2023-03-05T13:49:38;1.75;;;0.68;;
74196;SDS011;62555;52.678;4.900;2023-03-05T13:52:03;1.38;;;0.73;;
74196;SDS011;62555;52.678;4.900;2023-03-05T13:54:30;2.00;;;0.65;;
74196;SDS011;62555;52.678;4.900;2023-03-05T13:57:02;1.42;;;0.40;;
74196;SDS011;62555;52.678;4.900;2023-03-05T13:59:32;0.77;;;0.50;;
74196;SDS011;62555;52.678;4.900;2023-03-05T14:02:03;2.38;;;0.90;;
74196;SDS011;62555;52.678;4.900;2023-03-05T14:04:40;0.85;;;0.50;;
74196;SDS011;62555;52.678;4.900;2023-03-05T14:07:50;0.90;;;0.50;;
74196;SDS011;62555;52.678;4.900;2023-03-05T14:10:18;0.90;;;0.52;;
74196;SDS011;62555;52.678;4.900;2023-03-05T14:12:56;0.75;;;0.38;;
74196;SDS011;62555;52.678;4.900;2023-03-05T14:18:06;1.48;;;0.68;;
74196;SDS011;62555;52.678;4.900;2023-03-05T14:20:38;1.48;;;0.40;;
74196;SDS011;62555;52.678;4.900;2023-03-05T14:23:24;1.58;;;0.90;;
74196;SDS011;62555;52.678;4.900;2023-03-05T14:25:52;1.08;;;0.40;;
74196;SDS011;62555;52.678;4.900;2023-03-05T14:29:16;0.85;;;0.43;;
74196;SDS011;62555;52.678;4.900;2023-03-05T14:37:03;1.17;;;0.50;;
74196;SDS011;62555;52.678;4.900;2023-03-05T14:39:31;1.77;;;0.60;;
74196;SDS011;62555;52.678;4.900;2023-03-05T14:42:13;1.90;;;0.55;;
74196;SDS011;62555;52.678;4.900;2023-03-05T14:44:45;1.75;;;0.65;;
74196;SDS011;62555;52.678;4.900;2023-03-05T14:47:10;4.47;;;0.95;;
74196;SDS011;62555;52.678;4.900;2023-03-05T14:49:36;0.95;;;0.30;;
74196;SDS011;62555;52.678;4.900;2023-03-05T14:52:01;1.92;;;0.77;;
74196;SDS011;62555;52.678;4.900;2023-03-05T14:54:27;1.08;;;0.40;;
74196;SDS011;62555;52.678;4.900;2023-03-05T14:56:56;1.30;;;0.40;;
74196;SDS011;62555;52.678;4.900;2023-03-05T14:59:22;2.00;;;0.40;;
74196;SDS011;62555;52.678;4.900;2023-03-05T15:01:47;1.38;;;0.50;;
74196;SDS011;62555;52.678;4.900;2023-03-05T15:04:14;1.50;;;0.45;;
74196;SDS011;62555;52.678;4.900;2023-03-05T15:06:43;0.82;;;0.40;;
74196;SDS011;62555;52.678;4.900;2023-03-05T15:09:12;1.13;;;0.30;;
74196;SDS011;62555;52.678;4.900;2023-03-05T15:11:41;1.55;;;0.43;;
74196;SDS011;62555;52.678;4.900;2023-03-05T15:14:10;1.98;;;0.73;;
74196;SDS011;62555;52.678;4.900;2023-03-05T15:16:35;2.40;;;1.05;;
74196;SDS011;62555;52.678;4.900;2023-03-05T15:19:01;1.77;;;0.60;;
74196;SDS011;62555;52.678;4.900;2023-03-05T15:21:27;0.95;;;0.45;;
74196;SDS011;62555;52.678;4.900;2023-03-05T15:23:53;3.30;;;1.27;;
74196;SDS011;62555;52.678;4.900;2023-03-05T15:26:19;2.60;;;0.52;;
74196;SDS011;62555;52.678;4.900;2023-03-05T15:28:45;1.13;;;0.50;;
74196;SDS011;62555;52.678;4.900;2023-03-05T15:31:11;2.78;;;0.70;;
74196;SDS011;62555;52.678;4.900;2023-03-05T15:33:37;2.88;;;0.73;;
74196;SDS011;62555;52.678;4.900;2023-03-05T15:36:02;2.10;;;0.60;;
74196;SDS011;62555;52.678;4.900;2023-03-05T15:38:28;1.70;;;0.40;;
74196;SDS011;62555;52.678;4.900;2023-03-05T15:40:53;1.55;;;0.52;;
74196;SDS011;62555;52.678;4.900;2023-03-05T15:43:19;1.33;;;0.70;;
74196;SDS011;62555;52.678;4.900;2023-03-05T15:45:44;1.13;;;0.47;;
74196;SDS011;62555;52.678;4.900;2023-03-05T15:48:10;1.33;;;0.70;;
74196;SDS011;62555;52.678;4.900;2023-03-05T15:50:35;1.40;;;0.38;;
74196;SDS011;62555;52.678;4.900;2023-03-05T15:53:03;1.98;;;0.40;;
74196;SDS011;62555;52.678;4.900;2023-03-05T15:55:29;1.35;;;0.50;;
74196;SDS011;62555;52.678;4.900;2023-03-05T15:57:54;1.65;;;0.68;;
74196;SDS011;62555;52.678;4.900;2023-03-05T16:00:23;1.95;;;0.60;;
74196;SDS011;62555;52.678;4.900;2023-03-05T16:02:51;4.05;;;0.60;;
74196;SDS011;62555;52.678;4.900;2023-03-05T16:05:16;1.88;;;0.40;;
74196;SDS011;62555;52.678;4.900;2023-03-05T16:07:42;1.60;;;0.50;;
74196;SDS011;62555;52.678;4.900;2023-03-05T16:10:12;1.88;;;1.00;;
74196;SDS011;62555;52.678;4.900;2023-03-05T16:12:41;1.85;;;0.65;;
74196;SDS011;62555;52.678;4.900;2023-03-05T16:15:10;3.38;;;0.50;;
74196;SDS011;62555;52.678;4.900;2023-03-05T16:17:38;1.48;;;0.95;;
74196;SDS011;62555;52.678;4.900;2023-03-05T16:20:05;1.20;;;0.40;;
74196;SDS011;62555;52.678;4.900;2023-03-05T16:22:31;2.38;;;0.70;;
74196;SDS011;62555;52.678;4.900;2023-03-05T16:24:56;0.50;;;0.40;;
74196;SDS011;62555;52.678;4.900;2023-03-05T16:27:23;2.55;;;0.90;;
74196;SDS011;62555;52.678;4.900;2023-03-05T16:29:48;1.38;;;0.45;;